Annandale, NY (12504)

3:56 PM EDT on August 04, 2015 (GMT -0400)
Red Hook | | Change Station
CLOSE
Current Station
Personal Weather Station
Location: Red Hook, NY
Elevation: 256 ft
Nearby Weather Stations

Elev 256 ft 42.01 °N, 73.85 °W | Updated 1 minute ago

Partly Cloudy
Partly Cloudy
83.5 °F
Feels Like 83 °F
N
0.0
Wind Variable Wind from West
Gusts 2.0 mph

Today
High -- | Low -- °F
--% Chance of Precip.
Yesterday
High -- | Low -- °F
Precip. -- in
5:51 AM 8:10 PM
Waning Gibbous, 75% visible
Pressure 29.79 in
Visibility 10.0 miles
Clouds Scattered Clouds 6500 ft
Scattered Clouds 10000 ft
Heat Index 83 °F
Dew Point 58 °F
Humidity 42%
Rainfall 0.02 in
Snow Depth Not available.
UV 5 out of 12
Pollen 7.40 out of 12
Air Quality Not available.
Flu Activity Not available.
METAR KPOU 041953Z 25011KT 10SM SCT065 SCT100 31/14 A2980 RMK AO2 SLP088 T03110144

More Conditions Fewer Conditions

Pressure 29.79 in
Visibility 10.0 miles
Clouds Scattered Clouds 6500 ft
Scattered Clouds 10000 ft
Heat Index 83 °F
Dew Point 58 °F
Humidity 42%
Rainfall 0.02 in
Snow Depth Not available.
UV 5 out of 12
Pollen 7.40 out of 12
Air Quality Not available.
Flu Activity Not available.
METAR KPOU 041953Z 25011KT 10SM SCT065 SCT100 31/14 A2980 RMK AO2 SLP088 T03110144

More Conditions Fewer Conditions

10-Day Weather Forecast

×

Almanac

Astronomy

Aug. 04, 2015 Rise Set
Actual Time
Civil Twilight
Nautical Twilight
Astronomical Twilight
Moon
Length of Visible Light
Length of Day
Tomorrow will be .
, % of the Moon is Illuminated

Today's Extremes

State Highs State Lows

Community

WunderPhotos

Upload Photos

1,843,956 photos uploaded!

WunderBlogs® & News

Nearby

Air Quality

  Air Quality AQ Index Pollutant
Not available.

Snow Depth

Station Depth Elevation

Earthquake Activity

City Distance Mag. Time & Date
Minimum magnitude displayed is 2.5.

Coastal Water Temperatures

Place Temperature

Stations

Nearby Weather Stations

Station Location Temp. Windchill Dew Point Humidity Wind Precip. Elev Updated Type
                   
Severe Thunderstorm Watch
Statement as of 2:03 PM EDT on August 04, 2015

Severe Thunderstorm Watch 469 remains in effect until 800 PM EDT

NY
. New York counties included are

Albany Columbia Dutchess
Essex Greene Rensselaer
Saratoga Schenectady Warren
Washington